Aida Blu — IBWX — position and weather

sailwx.info

Track history (hours):
 
Tides and Currents Weather Stations Pressure Air Temp Water Temp Dewpoint Dewpoint Depression Visibility Wind Speed Wind Dir Waves Ship Positions

Aida Blu

Last reported at 2017-Nov-24 22:00 UTC. Time now 2017-Nov-24 22:25 UTC.
Position N 28°48' W 014°43'.

Length 252 m; draft 7.3 m.

Type: Passenger vessel. MMSI: 247282500.

Date/timePositionNaut miles runAvg speedWind from/ knotsBaromVisibWave heightAir tempDewpointWater temp
2017-Nov-24 22:00N 28°48' W 014°43'714.7
2017-Nov-24 21:30N 28°48' W 014°35'714.6
2017-Nov-24 21:00N 28°49' W 014°27'714.6
2017-Nov-24 20:30N 28°48' W 014°18'714.5
2017-Nov-24 20:00N 28°48' W 014°10'714.3
2017-Nov-24 19:30N 28°48' W 014°02'714.7
2017-Nov-24 19:00N 28°48' W 013°54'15 1.3
2017-Nov-24 06:46N 28°42' W 013°37'416.0
2017-Nov-24 06:30N 28°46' W 013°34'815.7
2017-Nov-24 06:00N 28°52' W 013°29'915.9
2017-Nov-24 05:27N 28°59' W 013°23'715.1
2017-Nov-24 05:00N 29°04' W 013°18'3015.1
2017-Nov-24 02:59N 29°29' W 012°57'714.7
2017-Nov-24 02:30N 29°34' W 012°52'2114.8
2017-Nov-24 01:05N 29°51' W 012°37'414.9
2017-Nov-24 00:48N 29°54' W 012°34'515.0
2017-Nov-24 00:30N 29°58' W 012°31'815.6
2017-Nov-24 00:00N 30°04' W 012°26'1115.7
2017-Nov-23 23:20N 30°12' W 012°18'515.7
2017-Nov-23 23:00N 30°16' W 012°15'25417.2
2017-Nov-23 08:18N 33°38' W 009°13'2014.7
2017-Nov-23 06:56N 33°54' W 008°58'714.7
2017-Nov-23 06:29N 33°59' W 008°53'714.7
2017-Nov-23 06:00N 34°05' W 008°48'1515.0
2017-Nov-23 05:00N 34°17' W 008°37'7315.2
2017-Nov-23 00:11N 35°15' W 007°43'315.3
2017-Nov-23 00:00N 35°17' W 007°41'815.5
2017-Nov-22 23:30N 35°23' W 007°35'815.5
2017-Nov-22 22:59N 35°29' W 007°29'2015.3
2017-Nov-22 21:39N 35°45' W 007°14'  
2017-Nov-17 23:12N 28°30' W 016°07'315.1
2017-Nov-17 22:59N 28°29' W 016°11'4 0.3
2017-Nov-17 10:15N 28°28' W 016°15'0 0.0
2017-Nov-17 10:00N 28°28' W 016°15'0 0.0
2017-Nov-17 09:30N 28°28' W 016°15'0 0.0
2017-Nov-17 04:36N 28°28' W 016°15'0 0.0
2017-Nov-17 04:24N 28°28' W 016°15'0 0.0
2017-Nov-17 03:48N 28°28' W 016°15'0 0.0
2017-Nov-17 03:24N 28°28' W 016°15'0 0.0
2017-Nov-17 02:54N 28°28' W 016°15'0 0.0
2017-Nov-17 00:30N 28°28' W 016°15'2 3.1
2017-Nov-17 00:00N 28°29' W 016°13'813.5
2017-Nov-16 23:26N 28°33' W 016°05'613.3
2017-Nov-16 22:59N 28°37' W 016°09'1514.9
2017-Nov-16 22:00N 28°38' W 016°26'36 0.8
2017-Nov-15 02:02N 28°49' W 015°47'115.5
2017-Nov-15 01:59N 28°49' W 015°46'715.4
2017-Nov-15 01:30N 28°49' W 015°38'815.4
2017-Nov-15 01:00N 28°49' W 015°29'815.4
2017-Nov-15 00:30N 28°49' W 015°20'815.2
2017-Nov-14 23:59N 28°49' W 015°11'715.2
2017-Nov-14 23:30N 28°49' W 015°03'815.2
2017-Nov-14 23:00N 28°49' W 014°54'  
Track history (hours):
 
Tides and Currents Weather Stations Pressure Air Temp Water Temp Dewpoint Dewpoint Depression Visibility Wind Speed Wind Dir Waves Ship Positions

Aida Blu

Last reported at 2017-Nov-24 22:00 UTC. Time now 2017-Nov-24 22:25 UTC.
Position N 28°48' W 014°43'.

Length 252 m; draft 7.3 m.

Type: Passenger vessel. MMSI: 247282500.

Date/timePositionNaut miles runAvg speedWind from/ knotsBaromVisibWave heightAir tempDewpointWater temp
2017-Nov-24 22:00N 28°48' W 014°43'714.7
2017-Nov-24 21:30N 28°48' W 014°35'714.6
2017-Nov-24 21:00N 28°49' W 014°27'714.6
2017-Nov-24 20:30N 28°48' W 014°18'714.5
2017-Nov-24 20:00N 28°48' W 014°10'714.3
2017-Nov-24 19:30N 28°48' W 014°02'714.7
2017-Nov-24 19:00N 28°48' W 013°54'15 1.3
2017-Nov-24 06:46N 28°42' W 013°37'416.0
2017-Nov-24 06:30N 28°46' W 013°34'815.7
2017-Nov-24 06:00N 28°52' W 013°29'915.9
2017-Nov-24 05:27N 28°59' W 013°23'715.1
2017-Nov-24 05:00N 29°04' W 013°18'3015.1
2017-Nov-24 02:59N 29°29' W 012°57'714.7
2017-Nov-24 02:30N 29°34' W 012°52'2114.8
2017-Nov-24 01:05N 29°51' W 012°37'414.9
2017-Nov-24 00:48N 29°54' W 012°34'515.0
2017-Nov-24 00:30N 29°58' W 012°31'815.6
2017-Nov-24 00:00N 30°04' W 012°26'1115.7
2017-Nov-23 23:20N 30°12' W 012°18'515.7
2017-Nov-23 23:00N 30°16' W 012°15'25417.2
2017-Nov-23 08:18N 33°38' W 009°13'2014.7
2017-Nov-23 06:56N 33°54' W 008°58'714.7
2017-Nov-23 06:29N 33°59' W 008°53'714.7
2017-Nov-23 06:00N 34°05' W 008°48'1515.0
2017-Nov-23 05:00N 34°17' W 008°37'7315.2
2017-Nov-23 00:11N 35°15' W 007°43'315.3
2017-Nov-23 00:00N 35°17' W 007°41'815.5
2017-Nov-22 23:30N 35°23' W 007°35'815.5
2017-Nov-22 22:59N 35°29' W 007°29'2015.3
2017-Nov-22 21:39N 35°45' W 007°14'  
2017-Nov-17 23:12N 28°30' W 016°07'315.1
2017-Nov-17 22:59N 28°29' W 016°11'4 0.3
2017-Nov-17 10:15N 28°28' W 016°15'0 0.0
2017-Nov-17 10:00N 28°28' W 016°15'0 0.0
2017-Nov-17 09:30N 28°28' W 016°15'0 0.0
2017-Nov-17 04:36N 28°28' W 016°15'0 0.0
2017-Nov-17 04:24N 28°28' W 016°15'0 0.0
2017-Nov-17 03:48N 28°28' W 016°15'0 0.0
2017-Nov-17 03:24N 28°28' W 016°15'0 0.0
2017-Nov-17 02:54N 28°28' W 016°15'0 0.0
2017-Nov-17 00:30N 28°28' W 016°15'2 3.1
2017-Nov-17 00:00N 28°29' W 016°13'813.5
2017-Nov-16 23:26N 28°33' W 016°05'613.3
2017-Nov-16 22:59N 28°37' W 016°09'1514.9
2017-Nov-16 22:00N 28°38' W 016°26'36 0.8
2017-Nov-15 02:02N 28°49' W 015°47'115.5
2017-Nov-15 01:59N 28°49' W 015°46'715.4
2017-Nov-15 01:30N 28°49' W 015°38'815.4
2017-Nov-15 01:00N 28°49' W 015°29'815.4
2017-Nov-15 00:30N 28°49' W 015°20'815.2
2017-Nov-14 23:59N 28°49' W 015°11'715.2
2017-Nov-14 23:30N 28°49' W 015°03'815.2
2017-Nov-14 23:00N 28°49' W 014°54'  

Dump ship's entire track history